createdAt,value
2019-05-09T00:02:05.499Z,5.40
2019-05-09T00:04:33.980Z,6.07
2019-05-09T00:07:03.591Z,9.43
2019-05-09T00:09:33.614Z,9.67
2019-05-09T00:12:03.750Z,7.63
2019-05-09T00:14:34.183Z,6.57
2019-05-09T00:17:03.831Z,4.67
2019-05-09T00:19:33.401Z,4.23
2019-05-09T00:22:03.296Z,7.30
2019-05-09T00:24:33.233Z,6.23
2019-05-09T00:27:03.860Z,5.63
2019-05-09T00:29:40.175Z,7.03
2019-05-09T00:32:23.898Z,6.17
2019-05-09T00:35:14.105Z,4.00
2019-05-09T00:38:00.683Z,4.43
2019-05-09T00:40:29.150Z,3.30
2019-05-09T00:42:57.914Z,2.90
2019-05-09T00:45:40.185Z,2.03
2019-05-09T00:48:09.029Z,2.10
2019-05-09T00:50:37.803Z,2.10
2019-05-09T00:53:06.259Z,2.40
2019-05-09T00:55:34.735Z,1.90
2019-05-09T00:58:04.201Z,2.10
2019-05-09T01:00:33.382Z,1.80
2019-05-09T01:03:03.598Z,2.27
2019-05-09T01:05:34.157Z,2.57
2019-05-09T01:08:04.328Z,3.10
2019-05-09T01:10:34.225Z,2.33
2019-05-09T01:13:03.616Z,2.10
2019-05-09T01:15:33.453Z,1.60
2019-05-09T01:18:04.145Z,4.17
2019-05-09T01:20:33.339Z,2.93
2019-05-09T01:23:03.481Z,2.70
2019-05-09T01:25:33.509Z,2.73
2019-05-09T01:28:03.347Z,2.50
2019-05-09T01:30:33.581Z,2.20
2019-05-09T01:33:13.560Z,2.43
2019-05-09T01:35:43.372Z,3.17
2019-05-09T01:38:14.266Z,2.53
2019-05-09T01:40:43.895Z,2.27
2019-05-09T01:43:13.825Z,3.00
2019-05-09T01:45:43.156Z,2.33
2019-05-09T01:48:13.959Z,2.90
2019-05-09T01:50:43.230Z,8.13
2019-05-09T01:53:13.552Z,6.17
2019-05-09T01:56:00.643Z,5.50
2019-05-09T01:58:30.031Z,6.30
2019-05-09T02:00:58.537Z,8.00
2019-05-09T02:03:27.335Z,6.33
2019-05-09T02:05:56.127Z,5.23
2019-05-09T02:08:24.913Z,4.77
2019-05-09T02:10:54.292Z,7.83
2019-05-09T02:13:23.238Z,7.67
2019-05-09T02:16:29.149Z,7.03
2019-05-09T02:19:10.158Z,9.23
2019-05-09T02:21:38.638Z,8.20
2019-05-09T02:24:07.110Z,8.90
2019-05-09T02:26:35.582Z,8.87
2019-05-09T02:29:04.075Z,7.53
2019-05-09T02:31:35.366Z,7.07
2019-05-09T02:34:04.911Z,8.43
2019-05-09T02:36:32.926Z,8.27
2019-05-09T02:39:01.388Z,7.77
2019-05-09T02:41:29.879Z,8.80
2019-05-09T02:43:58.670Z,6.37
2019-05-09T02:46:33.137Z,6.83
2019-05-09T02:49:01.580Z,7.50
2019-05-09T02:51:30.043Z,6.40
2019-05-09T02:53:58.876Z,5.70
2019-05-09T02:56:29.449Z,5.73
2019-05-09T02:59:18.961Z,6.80
2019-05-09T03:01:59.896Z,5.30
2019-05-09T03:04:28.632Z,5.77
2019-05-09T03:06:59.692Z,5.53
2019-05-09T03:09:28.686Z,7.13
2019-05-09T03:11:59.059Z,8.00
2019-05-09T03:14:28.738Z,8.70
2019-05-09T03:16:58.793Z,7.93
2019-05-09T03:19:29.834Z,8.13
2019-05-09T03:22:02.370Z,7.83
2019-05-09T03:24:30.849Z,7.93
2019-05-09T03:27:03.636Z,7.53
2019-05-09T03:29:39.413Z,7.70
2019-05-09T03:32:09.172Z,8.23
2019-05-09T03:34:37.340Z,7.30
2019-05-09T03:37:05.782Z,7.70
2019-05-09T03:39:34.530Z,7.40
2019-05-09T03:42:03.020Z,6.83
2019-05-09T03:44:31.491Z,8.33
2019-05-09T03:47:13.175Z,7.33
2019-05-09T03:49:41.649Z,9.13
2019-05-09T03:52:10.108Z,9.70
2019-05-09T03:54:38.845Z,9.23
2019-05-09T03:57:24.507Z,10.97
2019-05-09T03:59:52.986Z,10.53
2019-05-09T04:02:21.464Z,10.40
2019-05-09T04:04:49.929Z,8.83
2019-05-09T04:07:18.736Z,12.83
2019-05-09T04:09:48.004Z,10.60
2019-05-09T04:12:18.127Z,12.17
2019-05-09T04:14:48.063Z,11.23
2019-05-09T04:17:18.085Z,10.90
2019-05-09T04:19:47.866Z,9.73
2019-05-09T04:22:18.248Z,11.33
2019-05-09T04:24:47.484Z,11.53
2019-05-09T04:27:20.568Z,11.63
2019-05-09T04:29:50.437Z,12.53
2019-05-09T04:32:19.244Z,11.70
2019-05-09T04:34:47.720Z,13.07
2019-05-09T04:37:18.001Z,12.07
2019-05-09T04:39:47.682Z,9.53
2019-05-09T04:42:18.433Z,12.17
2019-05-09T04:44:57.466Z,12.60
2019-05-09T04:47:23.179Z,9.47
2019-05-09T04:49:51.680Z,13.30
2019-05-09T04:52:20.710Z,11.57
2019-05-09T04:54:49.176Z,10.90
2019-05-09T04:57:18.028Z,11.77
2019-05-09T04:59:47.524Z,13.93
2019-05-09T05:02:34.379Z,14.13
2019-05-09T05:05:02.827Z,12.27
2019-05-09T05:07:31.318Z,13.90
2019-05-09T05:09:59.791Z,13.83
2019-05-09T05:12:28.278Z,13.10
2019-05-09T05:14:58.000Z,10.23
2019-05-09T05:17:30.274Z,14.83
2019-05-09T05:19:58.046Z,15.00
2019-05-09T05:22:32.138Z,14.83
2019-05-09T05:25:02.681Z,15.80
2019-05-09T05:27:31.155Z,16.77
2019-05-09T05:29:59.622Z,14.80
2019-05-09T05:32:40.094Z,16.60
2019-05-09T05:35:28.455Z,13.00
2019-05-09T05:37:58.103Z,12.60
2019-05-09T05:40:32.734Z,11.77
2019-05-09T05:42:58.545Z,15.60
2019-05-09T05:45:28.932Z,14.57
2019-05-09T05:48:01.254Z,16.97
2019-05-09T05:50:29.699Z,16.20
2019-05-09T05:52:58.415Z,15.03
2019-05-09T05:55:27.542Z,14.50
2019-05-09T05:57:57.923Z,16.50
2019-05-09T06:00:28.676Z,17.23
2019-05-09T06:02:58.612Z,15.77
2019-05-09T06:05:27.795Z,17.47
2019-05-09T06:07:57.689Z,19.23
2019-05-09T06:10:28.790Z,18.63
2019-05-09T06:12:57.525Z,21.03
2019-05-09T06:15:28.621Z,16.30
2019-05-09T06:17:57.933Z,15.80
2019-05-09T06:20:28.140Z,20.17
2019-05-09T06:22:58.212Z,19.50
2019-05-09T06:25:30.435Z,18.03
2019-05-09T06:27:58.464Z,18.27
2019-05-09T06:30:28.606Z,19.00
2019-05-09T06:32:58.067Z,18.43
2019-05-09T06:35:28.261Z,18.23
2019-05-09T06:37:58.766Z,21.00
2019-05-09T06:40:28.755Z,20.20
2019-05-09T06:42:59.590Z,20.67
2019-05-09T06:45:49.853Z,20.70
2019-05-09T06:48:18.618Z,18.67
2019-05-09T06:50:48.323Z,17.13
2019-05-09T06:53:18.146Z,22.67
2019-05-09T06:55:47.602Z,22.90
2019-05-09T06:58:31.345Z,19.53
2019-05-09T07:01:07.776Z,18.80
2019-05-09T07:03:37.500Z,19.40
2019-05-09T07:06:10.388Z,20.63
2019-05-09T07:08:58.607Z,23.67
2019-05-09T07:11:27.613Z,24.20
2019-05-09T07:13:57.913Z,20.47
2019-05-09T07:16:27.699Z,19.60
2019-05-09T07:18:57.871Z,20.47
2019-05-09T07:21:45.525Z,17.13
2019-05-09T07:24:13.979Z,20.70
2019-05-09T07:26:42.467Z,20.77
2019-05-09T07:29:10.935Z,20.93
2019-05-09T07:31:44.023Z,22.57
2019-05-09T07:34:21.993Z,24.47
2019-05-09T07:36:50.444Z,21.63
2019-05-09T07:39:18.908Z,24.47
2019-05-09T07:41:47.923Z,21.00
2019-05-09T07:44:18.265Z,23.37
2019-05-09T07:46:52.866Z,19.23
2019-05-09T07:49:21.363Z,27.80
2019-05-09T07:51:49.919Z,29.13
2019-05-09T07:54:25.118Z,26.67
2019-05-09T07:56:48.687Z,24.60
2019-05-09T07:59:18.138Z,24.00
2019-05-09T08:01:48.713Z,25.13
2019-05-09T08:04:18.301Z,27.93
2019-05-09T08:06:48.639Z,24.83
2019-05-09T08:09:18.662Z,26.73
2019-05-09T08:11:48.325Z,25.17
2019-05-09T08:14:17.670Z,24.47
2019-05-09T08:16:47.553Z,18.90
2019-05-09T08:19:18.124Z,27.13
2019-05-09T08:21:47.988Z,22.33
2019-05-09T08:24:18.332Z,23.60
2019-05-09T08:26:47.819Z,25.53
2019-05-09T08:29:17.774Z,29.33
2019-05-09T08:31:48.542Z,24.33
2019-05-09T08:34:18.686Z,25.13
2019-05-09T08:36:47.729Z,24.73
2019-05-09T08:39:18.409Z,23.17
2019-05-09T08:41:48.515Z,26.73
2019-05-09T08:44:18.676Z,24.40
2019-05-09T08:46:48.121Z,25.10
2019-05-09T08:49:18.271Z,21.17
2019-05-09T08:52:05.939Z,25.50
2019-05-09T08:54:38.112Z,20.83
2019-05-09T08:57:07.660Z,21.47
2019-05-09T08:59:38.296Z,26.37
2019-05-09T09:02:16.552Z,23.53
2019-05-09T09:04:38.323Z,24.63
2019-05-09T09:07:08.435Z,22.73
2019-05-09T09:09:37.914Z,21.17
2019-05-09T09:12:25.173Z,25.20
2019-05-09T09:14:38.498Z,23.37
2019-05-09T09:17:07.908Z,25.87
2019-05-09T09:19:38.589Z,23.90
2019-05-09T09:22:08.879Z,24.17
2019-05-09T09:24:37.550Z,24.93
2019-05-09T09:27:07.697Z,24.40
2019-05-09T09:29:37.955Z,21.53
2019-05-09T09:32:08.336Z,22.83
2019-05-09T09:34:37.890Z,20.17
2019-05-09T09:37:11.376Z,20.03
2019-05-09T09:39:44.453Z,23.80
2019-05-09T09:42:09.028Z,18.20
2019-05-09T09:44:39.352Z,19.30
2019-05-09T09:47:08.376Z,20.97
2019-05-09T09:49:38.406Z,21.67
2019-05-09T09:52:08.619Z,21.67
2019-05-09T09:54:38.569Z,23.90
2019-05-09T09:57:09.629Z,20.53
2019-05-09T09:59:53.675Z,22.00
2019-05-09T10:02:27.774Z,22.00
2019-05-09T10:04:56.105Z,21.67
2019-05-09T10:07:24.568Z,20.77
2019-05-09T10:09:53.049Z,21.00
2019-05-09T10:12:21.573Z,21.40
2019-05-09T10:15:12.396Z,19.03
2019-05-09T10:17:49.681Z,18.17
2019-05-09T10:20:43.064Z,16.33
2019-05-09T10:23:18.123Z,14.43
2019-05-09T10:25:41.979Z,16.97
2019-05-09T10:28:10.525Z,15.67
2019-05-09T10:30:38.987Z,15.50
2019-05-09T10:33:09.167Z,18.33
2019-05-09T10:35:39.203Z,16.23
2019-05-09T10:38:08.880Z,16.23
2019-05-09T10:40:40.110Z,16.20
2019-05-09T10:43:39.009Z,14.83
2019-05-09T10:46:24.008Z,14.93
2019-05-09T10:48:58.753Z,14.70
2019-05-09T10:51:27.362Z,13.43
2019-05-09T10:53:55.819Z,11.93
2019-05-09T10:56:24.289Z,13.00
2019-05-09T10:58:53.084Z,12.10
2019-05-09T11:01:21.556Z,11.03
2019-05-09T11:03:50.025Z,10.27
2019-05-09T11:06:18.776Z,8.97
2019-05-09T11:08:48.140Z,6.77
2019-05-09T11:11:18.138Z,8.13
2019-05-09T11:13:48.176Z,7.03
2019-05-09T11:16:18.352Z,7.80
2019-05-09T11:18:48.258Z,7.97
2019-05-09T11:21:19.642Z,8.50
2019-05-09T11:23:48.805Z,7.10
2019-05-09T11:26:18.251Z,8.13
2019-05-09T11:28:46.932Z,6.93
2019-05-09T11:31:18.010Z,7.20
2019-05-09T11:33:48.137Z,7.60
2019-05-09T11:36:20.831Z,6.50
2019-05-09T11:38:49.066Z,6.67
2019-05-09T11:41:19.106Z,6.63
2019-05-09T11:43:48.509Z,6.67
2019-05-09T11:46:18.203Z,6.83
2019-05-09T11:48:46.701Z,6.70
2019-05-09T11:51:18.258Z,7.30
2019-05-09T11:53:45.418Z,6.90
2019-05-09T11:56:13.903Z,5.97
2019-05-09T11:58:42.362Z,5.33
2019-05-09T12:01:10.875Z,4.70
2019-05-09T12:03:39.333Z,4.73
2019-05-09T12:06:08.150Z,3.73
2019-05-09T12:08:38.766Z,4.70
2019-05-09T12:11:08.366Z,3.20
2019-05-09T12:13:38.035Z,2.80
2019-05-09T12:16:06.703Z,2.70
2019-05-09T12:18:37.683Z,2.40
2019-05-09T12:21:05.582Z,1.73
2019-05-09T12:23:34.033Z,2.77
2019-05-09T12:26:02.740Z,2.37
2019-05-09T12:28:31.207Z,2.20
2019-05-09T12:30:59.666Z,2.83
2019-05-09T12:33:29.618Z,2.40
2019-05-09T12:35:59.355Z,1.77
2019-05-09T12:38:27.954Z,2.07
2019-05-09T12:41:00.312Z,1.67
2019-05-09T12:43:28.330Z,1.70
2019-05-09T12:45:57.845Z,1.50
2019-05-09T12:48:27.875Z,1.90
2019-05-09T12:50:58.561Z,1.40
2019-05-09T12:53:28.040Z,1.50
2019-05-09T12:55:59.877Z,1.70
2019-05-09T12:58:28.877Z,1.40
2019-05-09T13:00:58.627Z,1.03
2019-05-09T13:03:27.771Z,1.20
2019-05-09T13:05:57.483Z,1.23
2019-05-09T13:08:27.815Z,1.40
2019-05-09T13:10:58.327Z,1.33
2019-05-09T13:13:29.115Z,1.20
2019-05-09T13:16:10.115Z,1.93
2019-05-09T13:18:54.591Z,1.50
2019-05-09T13:21:23.052Z,1.17
2019-05-09T13:23:52.505Z,1.13
2019-05-09T13:26:21.091Z,1.13
2019-05-09T13:28:49.551Z,1.37
2019-05-09T13:31:18.348Z,1.63
2019-05-09T13:33:48.765Z,1.30
2019-05-09T13:36:18.910Z,1.73
2019-05-09T13:38:57.579Z,1.80
2019-05-09T13:41:17.762Z,1.27
2019-05-09T13:43:56.840Z,0.93
2019-05-09T13:46:17.964Z,1.30
2019-05-09T13:49:05.761Z,1.07
2019-05-09T13:51:18.392Z,1.23
2019-05-09T13:53:48.373Z,1.33
2019-05-09T13:56:17.805Z,0.90
2019-05-09T13:58:48.715Z,1.00
2019-05-09T14:01:17.766Z,1.00
2019-05-09T14:03:49.038Z,1.27
2019-05-09T14:06:16.840Z,1.10
2019-05-09T14:08:48.619Z,1.30
2019-05-09T14:11:15.517Z,1.00
2019-05-09T14:13:43.974Z,0.80
2019-05-09T14:16:19.434Z,1.50
2019-05-09T14:18:43.002Z,1.37
2019-05-09T14:21:11.485Z,0.90
2019-05-09T14:23:51.022Z,1.10
2019-05-09T14:26:10.164Z,1.20
2019-05-09T14:28:38.626Z,1.10
2019-05-09T14:31:07.619Z,1.00
2019-05-09T14:33:38.775Z,0.83
2019-05-09T14:36:08.289Z,0.83
2019-05-09T14:38:39.109Z,1.00
2019-05-09T14:41:07.816Z,0.80
2019-05-09T14:43:39.324Z,1.23
2019-05-09T14:46:08.162Z,0.70
2019-05-09T14:48:37.030Z,0.90
2019-05-09T14:51:07.657Z,0.90
2019-05-09T14:53:35.942Z,0.83
2019-05-09T14:56:04.417Z,0.90
2019-05-09T14:58:32.896Z,0.80
2019-05-09T15:01:01.368Z,1.30
2019-05-09T15:03:29.877Z,1.30
2019-05-09T15:05:58.318Z,1.07
2019-05-09T15:08:27.942Z,1.07
2019-05-09T15:10:58.272Z,1.10
2019-05-09T15:13:28.641Z,1.07
2019-05-09T15:15:57.919Z,1.10
2019-05-09T15:18:26.467Z,0.70
2019-05-09T15:20:54.949Z,0.90
2019-05-09T15:23:23.428Z,1.03
2019-05-09T15:25:51.945Z,0.73
2019-05-09T15:28:20.661Z,0.70
2019-05-09T15:30:49.466Z,0.87
2019-05-09T15:33:17.935Z,0.77
2019-05-09T15:35:48.661Z,0.80
2019-05-09T15:38:18.141Z,1.00
2019-05-09T15:40:48.169Z,0.63
2019-05-09T15:43:18.629Z,0.70
2019-05-09T15:46:08.333Z,0.73
2019-05-09T15:48:38.080Z,0.73
2019-05-09T15:51:07.541Z,0.80
2019-05-09T15:53:38.124Z,0.90
2019-05-09T15:56:08.017Z,0.80
2019-05-09T15:58:38.547Z,0.80
2019-05-09T16:01:08.229Z,0.67
2019-05-09T16:03:38.206Z,0.77
2019-05-09T16:06:09.013Z,0.70
2019-05-09T16:08:38.226Z,1.10
2019-05-09T16:11:08.697Z,0.97
2019-05-09T16:13:37.352Z,1.13
2019-05-09T16:16:08.798Z,1.10
2019-05-09T16:18:36.086Z,1.30
2019-05-09T16:21:04.544Z,1.37
2019-05-09T16:23:32.998Z,1.20
2019-05-09T16:26:01.492Z,1.20
2019-05-09T16:28:29.953Z,1.30
2019-05-09T16:30:58.638Z,1.47
2019-05-09T16:33:27.884Z,1.47
2019-05-09T16:35:56.412Z,1.20
2019-05-09T16:38:38.807Z,1.00
2019-05-09T16:40:55.277Z,1.37
2019-05-09T16:43:23.734Z,1.30
2019-05-09T16:45:52.478Z,1.13
2019-05-09T16:48:21.253Z,1.23
2019-05-09T16:51:00.704Z,1.40
2019-05-09T16:53:19.946Z,1.20
2019-05-09T16:55:48.411Z,1.60
2019-05-09T16:58:18.602Z,1.30
2019-05-09T17:00:50.234Z,0.97
2019-05-09T17:03:18.690Z,1.50
2019-05-09T17:05:47.163Z,1.70
2019-05-09T17:08:17.766Z,1.67
2019-05-09T17:10:48.394Z,1.60
2019-05-09T17:13:18.452Z,1.67
2019-05-09T17:15:46.237Z,1.40
2019-05-09T17:18:14.715Z,1.13
2019-05-09T17:20:50.412Z,1.30
2019-05-09T17:23:21.374Z,1.40
2019-05-09T17:25:49.818Z,1.47
2019-05-09T17:28:18.307Z,1.30
2019-05-09T17:30:49.251Z,1.10
2019-05-09T17:33:17.249Z,1.10
2019-05-09T17:35:48.110Z,1.00
2019-05-09T17:38:18.094Z,1.00
2019-05-09T17:40:48.227Z,1.20
2019-05-09T17:43:18.236Z,1.07
2019-05-09T17:45:47.772Z,1.33
2019-05-09T17:48:18.289Z,0.97
2019-05-09T17:50:46.661Z,1.27
2019-05-09T17:53:15.136Z,1.60
2019-05-09T17:55:43.601Z,1.10
2019-05-09T17:58:25.856Z,1.20
2019-05-09T18:00:42.574Z,1.10
2019-05-09T18:03:11.317Z,1.67
2019-05-09T18:05:39.797Z,1.20
2019-05-09T18:08:08.296Z,1.40
2019-05-09T18:10:38.038Z,1.33
2019-05-09T18:13:07.929Z,1.73
2019-05-09T18:15:37.729Z,1.50
2019-05-09T18:18:06.632Z,1.40
2019-05-09T18:20:37.737Z,1.63
2019-05-09T18:23:05.263Z,1.60
2019-05-09T18:25:33.732Z,1.80
2019-05-09T18:28:02.198Z,1.40
2019-05-09T18:30:30.675Z,2.20
2019-05-09T18:33:10.089Z,1.37
2019-05-09T18:35:38.802Z,1.07
2019-05-09T18:38:08.014Z,1.67
2019-05-09T18:40:36.694Z,1.93
2019-05-09T18:43:07.566Z,1.23
2019-05-09T18:45:37.550Z,1.87
2019-05-09T18:48:08.272Z,1.37
2019-05-09T18:50:36.149Z,1.87
2019-05-09T18:53:04.634Z,1.60
2019-05-09T18:55:33.094Z,1.70
2019-05-09T18:58:01.555Z,1.73
2019-05-09T19:00:30.061Z,1.57
2019-05-09T19:02:58.525Z,1.80
2019-05-09T19:05:26.985Z,2.10
2019-05-09T19:07:55.675Z,1.37
2019-05-09T19:10:24.151Z,1.97
2019-05-09T19:12:52.611Z,1.83
2019-05-09T19:15:28.150Z,1.67
2019-05-09T19:18:23.478Z,1.83
2019-05-09T19:21:00.073Z,1.77
2019-05-09T19:23:28.550Z,2.40
2019-05-09T19:25:58.646Z,3.33
2019-05-09T19:28:27.389Z,3.00
2019-05-09T19:30:55.824Z,3.20
2019-05-09T19:33:24.281Z,4.07
2019-05-09T19:35:52.763Z,4.27
2019-05-09T19:38:21.828Z,4.80
2019-05-09T19:40:50.594Z,4.17
2019-05-09T19:43:19.107Z,2.77
2019-05-09T19:45:47.557Z,3.00
2019-05-09T19:48:16.019Z,2.70
2019-05-09T19:50:44.464Z,2.73
2019-05-09T19:53:12.985Z,2.20
2019-05-09T19:55:41.814Z,2.20
2019-05-09T19:58:10.266Z,2.60
2019-05-09T20:00:38.974Z,3.10
2019-05-09T20:03:07.742Z,4.67
2019-05-09T20:05:36.225Z,7.23
2019-05-09T20:08:04.735Z,9.60
2019-05-09T20:10:51.374Z,8.30
2019-05-09T20:13:30.993Z,7.77
2019-05-09T20:15:59.453Z,8.57
2019-05-09T20:18:27.924Z,5.40
2019-05-09T20:20:56.386Z,5.53
2019-05-09T20:23:24.889Z,4.90
2019-05-09T20:25:53.319Z,4.57
2019-05-09T20:28:21.788Z,5.27
2019-05-09T20:30:50.257Z,5.40
2019-05-09T20:33:18.716Z,6.83
2019-05-09T20:35:47.163Z,6.20
2019-05-09T20:38:16.140Z,8.97
2019-05-09T20:40:44.799Z,10.27
2019-05-09T20:43:13.456Z,9.57
2019-05-09T20:45:42.126Z,9.77
2019-05-09T20:48:10.795Z,7.93
2019-05-09T20:50:39.429Z,6.50
2019-05-09T20:53:09.953Z,7.00
2019-05-09T20:55:38.448Z,6.53
2019-05-09T20:58:07.163Z,5.70
2019-05-09T21:00:35.812Z,5.47
2019-05-09T21:03:07.915Z,3.80
2019-05-09T21:05:34.846Z,5.27
2019-05-09T21:08:03.514Z,4.73
2019-05-09T21:10:32.174Z,4.83
2019-05-09T21:13:00.837Z,4.93
2019-05-09T21:15:29.470Z,4.40
2019-05-09T21:17:58.107Z,4.23
2019-05-09T21:20:26.765Z,4.43
2019-05-09T21:22:55.416Z,3.67
2019-05-09T21:25:24.074Z,3.83
2019-05-09T21:27:52.785Z,3.87
2019-05-09T21:30:21.794Z,3.80
2019-05-09T21:32:50.502Z,3.60
2019-05-09T21:35:19.248Z,6.33
2019-05-09T21:37:47.742Z,4.17
2019-05-09T21:40:16.219Z,6.67
2019-05-09T21:42:44.713Z,5.20
2019-05-09T21:45:13.199Z,5.17
2019-05-09T21:47:41.680Z,5.97
2019-05-09T21:50:10.176Z,5.20
2019-05-09T21:52:38.881Z,4.50
2019-05-09T21:55:07.359Z,8.07
2019-05-09T21:57:35.812Z,7.27
2019-05-09T22:00:05.490Z,8.90
2019-05-09T22:02:33.923Z,8.70
2019-05-09T22:05:02.533Z,17.37
2019-05-09T22:07:30.949Z,10.40
2019-05-09T22:09:59.430Z,5.87
2019-05-09T22:12:27.885Z,4.60
2019-05-09T22:14:56.591Z,4.23
2019-05-09T22:17:35.647Z,4.30
2019-05-09T22:20:04.607Z,4.13
2019-05-09T22:22:34.970Z,3.63
2019-05-09T22:25:03.429Z,3.77
2019-05-09T22:27:31.911Z,4.57
2019-05-09T22:30:00.665Z,3.90
2019-05-09T22:32:29.150Z,3.50
2019-05-09T22:34:57.648Z,3.53
2019-05-09T22:37:26.141Z,3.90
2019-05-09T22:39:54.637Z,3.47
2019-05-09T22:42:23.093Z,3.90
2019-05-09T22:44:51.564Z,3.87
2019-05-09T22:47:20.341Z,3.73
2019-05-09T22:49:52.338Z,4.17
2019-05-09T22:52:19.021Z,4.87
2019-05-09T22:54:47.485Z,5.30
2019-05-09T22:57:15.989Z,7.50
2019-05-09T22:59:44.840Z,7.07
2019-05-09T23:02:13.350Z,8.50
2019-05-09T23:04:41.832Z,5.67
2019-05-09T23:07:10.324Z,6.60
2019-05-09T23:09:38.801Z,5.43
2019-05-09T23:12:07.287Z,4.53
2019-05-09T23:14:35.763Z,4.43
2019-05-09T23:17:04.417Z,3.87
2019-05-09T23:19:32.879Z,5.03
2019-05-09T23:22:01.349Z,4.90
2019-05-09T23:24:31.714Z,4.67
2019-05-09T23:27:00.195Z,5.13
2019-05-09T23:29:28.662Z,5.10
2019-05-09T23:32:08.725Z,5.27
2019-05-09T23:34:37.195Z,5.30
2019-05-09T23:37:05.677Z,5.53
2019-05-09T23:39:40.706Z,3.97
2019-05-09T23:42:09.198Z,4.43
2019-05-09T23:44:37.687Z,6.93
2019-05-09T23:47:06.186Z,5.87
2019-05-09T23:49:34.987Z,4.80
2019-05-09T23:52:03.453Z,3.80
2019-05-09T23:54:49.948Z,4.67
2019-05-09T23:57:36.014Z,5.63
